• Join FlightAware (Why Join?)
  • Login
  • US Flag 
04:35PM EST


 

Airport Tracker/Info


-or-


 

Live Flight TrackerFlight Track Log ✈ SKQ225 ✈ 04-May-2013 ✈ KSDF - KOSU

Flight Track Log - Related Links

Times and Time Zones

All times are in EDT time to prevent confusion due to time zone crossing. See the SKQ225 flight status page for this flight to view local times or setup timezone preferences in your user account.

Time Position Orientation Groundspeed Altitude Reporting Facility
EDT Latitude Longitude Course Direction KTS MPH feet Rate Location/Type
03:19AM 38.1897 -85.6561 52° Northeast 142 163 3,000  Level Indianapolis Center
03:20AM 38.2194 -85.6133 49° Northeast 153 176 3,600 600 Climbing Indianapolis Center
03:21AM 38.2517 -85.5675 48° Northeast 161 185 4,200 600 Climbing Indianapolis Center
03:22AM 38.2861 -85.5233 45° Northeast 168 193 4,900 600 Climbing Indianapolis Center
03:23AM 38.3606 -85.4727 38° Northeast  Level FlightAware Approximate
03:23AM 38.3197 -85.4783 46° Northeast 172 198 5,500  Level Indianapolis Center
03:24AM 38.3940 -85.4304 46° Northeast  Level FlightAware Approximate
03:24AM 38.3556 -85.4325 45° Northeast 177 204 6,200  Level Indianapolis Center
03:25AM 38.3881 -85.3889 46° Northeast 172 198 7,000 300 Climbing Indianapolis Center
03:26AM 38.4244 -85.3408 46° Northeast 184 212 6,900 -60 Descending Indianapolis Center
03:27AM 38.4614 -85.2900 47° Northeast 194 223 6,900  Level Indianapolis Center
03:28AM 38.4997 -85.2397 46° Northeast 195 224 7,000  Climbing Indianapolis Center
03:29AM 38.5394 -85.1886 45° Northeast 197 227 6,900  Descending Indianapolis Center
03:30AM 38.5767 -85.1389 46° Northeast 196 226 7,000  Climbing Indianapolis Center
03:31AM 38.6142 -85.0900 46° Northeast 193 222 6,900  Descending Indianapolis Center
03:32AM 38.6506 -85.0417 46° Northeast 195 224 7,000  Climbing Indianapolis Center
03:33AM 38.6872 -84.9914 47° Northeast 195 224 7,000  Level Indianapolis Center
03:34AM 38.7247 -84.9422 46° Northeast 194 223 7,100  Climbing Indianapolis Center
03:35AM 38.7622 -84.8922 46° Northeast 196 226 7,100  Level Indianapolis Center
03:36AM 38.8008 -84.8414 46° Northeast 200 230 7,100 -60 Level Indianapolis Center
03:37AM 38.8383 -84.7903 47° Northeast 197 227 7,000 -60 Descending Indianapolis Center
03:38AM 38.8750 -84.7386 48° Northeast 197 227 7,000 60 Level Indianapolis Center
03:38AM 38.9000 -84.7000 50° Northeast 199 229 7,100  Climbing Cincinnati TRACON
03:39AM 38.9333 -84.6500 49° Northeast 193 222 7,000 -60 Descending Cincinnati TRACON
03:40AM 38.9833 -84.6000 38° Northeast 191 220 7,000  Level Cincinnati TRACON
03:41AM 39.0167 -84.5500 49° Northeast 192 221 7,000  Level Cincinnati TRACON
03:42AM 39.0500 -84.5000 49° Northeast 190 219 7,100  Climbing Cincinnati TRACON
03:43AM 39.0833 -84.4500 49° Northeast 190 219 7,100  Level Cincinnati TRACON
03:45AM 39.1319 -84.3894 44° Northeast 187 215 7,100  Level Indianapolis Center
03:46AM 39.1700 -84.3397 45° Northeast 192 221 7,100  Level Indianapolis Center
03:47AM 39.2078 -84.2892 46° Northeast 193 222 7,100 -60 Level Indianapolis Center
03:48AM 39.2447 -84.2383 47° Northeast 193 222 7,000 -60 Descending Indianapolis Center
03:49AM 39.2819 -84.1856 48° Northeast 195 224 7,000  Level Indianapolis Center
03:50AM 39.3194 -84.1336 47° Northeast 197 227 7,100  Climbing Indianapolis Center
03:51AM 39.3583 -84.0825 45° Northeast 196 226 7,100  Level Indianapolis Center
03:52AM 39.3958 -84.0306 47° Northeast 197 227 7,100 -60 Level Indianapolis Center
03:53AM 39.4342 -83.9781 47° Northeast 198 228 7,000 -60 Descending Indianapolis Center
03:54AM 39.4728 -83.9253 47° Northeast 200 230 7,000  Level Indianapolis Center
03:55AM 39.5042 -83.8811 47° Northeast 200 230 7,100  Climbing Indianapolis Center
03:56AM 39.5428 -83.8283 46° Northeast 199 229 7,100  Level Indianapolis Center
03:57AM 39.5806 -83.7758 47° Northeast 199 229 7,100 -60 Level Indianapolis Center
03:58AM 39.6178 -83.7242 47° Northeast 196 226 7,000 -60 Descending Indianapolis Center
03:59AM 39.6544 -83.6725 47° Northeast 193 222 7,000 -60 Level Indianapolis Center
04:00AM 39.6919 -83.6200 47° Northeast 196 226 6,900 -420 Descending Indianapolis Center
04:01AM 39.7311 -83.5639 48° Northeast 203 234 6,200 -540 Descending Indianapolis Center
04:02AM 39.7725 -83.5081 46° Northeast 211 243 5,900 -420 Descending Indianapolis Center
04:03AM 39.8100 -83.4547 48° Northeast 207 238 5,400 -540 Descending Indianapolis Center
04:04AM 39.8486 -83.4017 47° Northeast 206 237 4,900 -540 Descending Indianapolis Center
04:05AM 39.8881 -83.3461 47° Northeast 207 238 4,400 -300 Descending Indianapolis Center
04:06AM 39.9272 -83.2894 48° Northeast 206 237 4,300 -120 Descending Indianapolis Center
04:08AM 39.9787 -83.2031 52° Northeast  Level FlightAware Approximate
04:15AM 40.0667 -83.0667 37° Northeast  Level FlightAware Approximate
04:16AM 40.0798 -83.0732 37° Northeast  Level Estimated